Time;durP1;ratioP1;P1;durP2;ratioP2;P2;SDS_P1;SDS_P2;PMS_P1;PMS_P2;Temp;Humidity;BMP_temperature;BMP_pressure;BME280_temperature;BME280_humidity;BME280_pressure;Samples;Min_cycle;Max_cycle;Signal;HPM_P1;HPM_P2
2023/08/22 00:00:33;;;;;;;4.60;1.90;;;;;;;18.75;78.09;101938.78;4988079;28;20069;-72
2023/08/22 00:03:01;;;;;;;5.20;2.28;;;;;;;18.72;77.91;101928.25;4988488;28;20057;-76
2023/08/22 00:05:28;;;;;;;4.32;2.00;;;;;;;18.68;78.34;101924.84;4987888;28;20069;-75
2023/08/22 00:07:56;;;;;;;4.72;1.83;;;;;;;18.66;78.18;101921.38;5003694;28;20038;-75
2023/08/22 00:10:23;;;;;;;5.10;1.95;;;;;;;18.65;78.07;101916.13;4990448;28;20046;-75
2023/08/22 00:12:50;;;;;;;4.32;2.28;;;;;;;18.61;78.08;101913.59;4986231;28;20050;-75
2023/08/22 00:15:17;;;;;;;7.15;2.03;;;;;;;18.59;78.69;101907.44;4988857;28;20140;-73
2023/08/22 00:17:45;;;;;;;5.47;2.17;;;;;;;18.58;79.02;101913.72;4987826;28;20073;-75
2023/08/22 00:20:13;;;;;;;6.47;2.50;;;;;;;18.58;79.01;101910.22;4989505;28;20054;-75
2023/08/22 00:22:41;;;;;;;4.07;2.10;;;;;;;18.56;79.04;101909.41;4988024;28;20082;-75
2023/08/22 00:25:09;;;;;;;5.75;2.35;;;;;;;18.54;79.24;101897.94;4987848;28;20050;-75
2023/08/22 00:27:37;;;;;;;4.65;1.95;;;;;;;18.51;79.64;101898.09;4987181;28;20541;-75
2023/08/22 00:30:07;;;;;;;4.00;1.92;;;;;;;18.50;79.54;101904.38;4985255;28;20050;-74
2023/08/22 00:32:35;;;;;;;3.58;1.77;;;;;;;18.50;79.82;101901.69;5003362;28;20552;-75
2023/08/22 00:35:02;;;;;;;3.75;2.03;;;;;;;18.48;79.77;101909.75;4987918;28;20050;-76
2023/08/22 00:37:29;;;;;;;5.97;2.30;;;;;;;18.45;79.65;101912.59;4988588;28;20069;-75
2023/08/22 00:39:57;;;;;;;4.80;1.92;;;;;;;18.40;79.89;101910.13;5005417;28;20043;-76
2023/08/22 00:42:25;;;;;;;2.90;2.10;;;;;;;18.39;80.06;101913.75;4984069;28;20042;-73
2023/08/22 00:44:53;;;;;;;4.15;2.10;;;;;;;18.38;79.91;101906.66;4983980;28;20891;-72
2023/08/22 00:47:22;;;;;;;6.10;2.00;;;;;;;18.39;80.00;101916.41;4988271;28;20124;-73
2023/08/22 00:49:49;;;;;;;7.93;2.20;;;;;;;18.40;80.03;101904.81;5002992;28;20046;-73
2023/08/22 00:52:17;;;;;;;3.60;2.10;;;;;;;18.41;79.96;101900.31;4987740;28;20049;-73
2023/08/22 00:54:46;;;;;;;5.10;2.20;;;;;;;18.40;80.27;101898.56;4986941;28;20578;-73
2023/08/22 00:57:15;;;;;;;6.13;2.30;;;;;;;18.39;80.20;101889.72;4991204;28;20406;-72
2023/08/22 00:59:42;;;;;;;6.00;2.28;;;;;;;18.38;80.16;101887.97;4987771;28;20570;-73
2023/08/22 01:02:09;;;;;;;5.07;2.50;;;;;;;18.38;79.97;101889.78;5002453;28;20543;-74
2023/08/22 01:04:37;;;;;;;6.65;2.80;;;;;;;18.35;80.54;101885.44;5001010;28;20042;-75
2023/08/22 01:07:25;;;;;;;5.35;2.80;;;;;;;18.36;80.58;101878.31;4987763;28;20489;-74
2023/08/22 01:10:06;;;;;;;9.45;2.60;;;;;;;18.34;80.54;101882.88;4987672;28;20538;-74
2023/08/22 01:12:37;;;;;;;5.95;2.25;;;;;;;18.32;80.64;101877.56;4986923;28;20057;-73
2023/08/22 01:15:18;;;;;;;6.00;2.30;;;;;;;18.29;80.76;101886.59;4992892;28;20503;-72
2023/08/22 01:17:49;;;;;;;6.10;2.90;;;;;;;18.26;80.84;101881.38;4986252;28;20085;-72
2023/08/22 01:20:17;;;;;;;5.45;2.53;;;;;;;18.26;80.91;101881.38;4988247;28;20515;-72
2023/08/22 01:22:44;;;;;;;4.60;2.47;;;;;;;18.27;80.78;101888.47;4986020;28;20054;-71
2023/08/22 01:25:11;;;;;;;7.85;2.78;;;;;;;18.29;81.21;101888.41;4986172;28;20093;-74
2023/08/22 01:28:21;;;;;;;5.97;2.20;;;;;;;18.30;81.19;101876.81;4984747;28;20590;-72
2023/08/22 01:31:04;;;;;;;5.57;2.55;;;;;;;18.27;80.96;101884.94;4998186;28;20729;-74
2023/08/22 01:33:36;;;;;;;5.35;2.40;;;;;;;18.24;81.19;101880.63;4986447;28;20046;-76
2023/08/22 01:36:08;;;;;;;4.75;2.65;;;;;;;18.24;81.39;101885.06;5002884;28;20495;-74
2023/08/22 01:38:39;;;;;;;4.75;2.50;;;;;;;18.21;81.54;101887.91;5001657;28;20762;-75
2023/08/22 01:41:07;;;;;;;5.18;2.35;;;;;;;18.18;81.31;101882.69;4987125;28;20125;-76
2023/08/22 01:43:36;;;;;;;6.50;2.80;;;;;;;18.14;81.69;101880.16;4987686;28;20073;-74
2023/08/22 01:46:05;;;;;;;7.53;2.75;;;;;;;18.10;81.84;101883.03;4987977;28;21045;-76
2023/08/22 01:48:32;;;;;;;6.22;2.40;;;;;;;18.07;81.74;101872.50;4993917;28;20042;-75
2023/08/22 01:51:00;;;;;;;4.45;2.67;;;;;;;18.03;82.45;101879.78;5005989;28;20402;-74
2023/08/22 01:53:27;;;;;;;4.20;2.60;;;;;;;17.97;82.23;101869.41;4994979;28;20073;-74
2023/08/22 01:56:01;;;;;;;6.03;2.70;;;;;;;17.94;82.85;101864.16;4983722;28;20042;-74
2023/08/22 01:58:28;;;;;;;5.47;2.60;;;;;;;17.89;82.79;101859.03;4982450;28;20053;-74
2023/08/22 02:00:55;;;;;;;4.75;2.75;;;;;;;17.89;83.28;101863.53;4984171;28;20066;-74
2023/08/22 02:03:23;;;;;;;4.63;2.40;;;;;;;17.88;83.18;101864.44;4983073;28;20050;-75
2023/08/22 02:05:51;;;;;;;4.70;2.45;;;;;;;17.87;83.41;101868.91;4986080;28;20446;-74
2023/08/22 02:08:18;;;;;;;5.20;2.50;;;;;;;17.86;83.41;101861.84;4996117;28;20047;-75
2023/08/22 02:10:45;;;;;;;6.35;2.60;;;;;;;17.86;83.77;101869.84;4966671;28;20684;-74
2023/08/22 02:13:12;;;;;;;7.53;2.60;;;;;;;17.87;83.43;101873.38;4972064;28;20121;-75
2023/08/22 02:15:39;;;;;;;5.18;2.70;;;;;;;17.84;84.13;101867.25;5001264;28;20034;-75
2023/08/22 02:18:07;;;;;;;3.92;2.42;;;;;;;17.84;83.73;101872.59;4985381;28;20047;-77
2023/08/22 02:20:34;;;;;;;5.45;2.70;;;;;;;17.85;84.19;101870.81;4986321;28;20042;-77
2023/08/22 02:23:04;;;;;;;4.75;2.60;;;;;;;17.85;84.41;101870.81;4990761;28;20128;-77
2023/08/22 02:25:32;;;;;;;4.20;2.50;;;;;;;17.86;84.63;101869.84;4983172;28;20161;-78
2023/08/22 02:28:01;;;;;;;4.38;2.53;;;;;;;17.87;84.31;101857.38;4983904;28;20035;-78
2023/08/22 02:30:29;;;;;;;7.15;2.72;;;;;;;17.87;84.64;101860.06;4983984;28;20057;-77
2023/08/22 02:32:57;;;;;;;4.78;2.90;;;;;;;17.87;84.41;101862.72;4983046;28;20049;-76
2023/08/22 02:35:24;;;;;;;4.78;2.67;;;;;;;17.85;84.50;101855.66;4984395;28;20442;-76
2023/08/22 02:37:51;;;;;;;6.57;2.72;;;;;;;17.85;84.53;101852.97;4984584;28;20065;-77
2023/08/22 02:40:18;;;;;;;4.63;2.63;;;;;;;17.84;84.82;101851.25;5000003;28;20038;-79
2023/08/22 02:42:45;;;;;;;5.93;2.75;;;;;;;17.83;84.73;101851.31;4983948;28;20050;-78
2023/08/22 02:45:13;;;;;;;5.00;2.60;;;;;;;17.83;84.87;101851.31;4984536;28;20038;-78
2023/08/22 02:47:41;;;;;;;4.65;2.50;;;;;;;17.81;84.85;101847.84;4985577;28;20042;-77
2023/08/22 02:50:10;;;;;;;6.28;3.15;;;;;;;17.83;85.12;101851.31;4985072;28;20153;-77
2023/08/22 02:52:37;;;;;;;4.45;2.70;;;;;;;17.78;85.17;101848.88;4987020;28;20042;-75
2023/08/22 02:55:05;;;;;;;5.55;2.70;;;;;;;17.78;85.54;101842.66;4984813;28;20125;-75
2023/08/22 02:57:33;;;;;;;7.80;2.55;;;;;;;17.76;85.64;101840.06;4988973;28;20055;-76
2023/08/22 03:00:00;;;;;;;4.65;2.53;;;;;;;17.75;85.73;101840.16;4980399;28;20053;-75
2023/08/22 03:02:28;;;;;;;5.22;2.55;;;;;;;17.74;85.91;101838.41;5000684;28;20034;-76
2023/08/22 03:04:56;;;;;;;7.45;3.17;;;;;;;17.74;85.99;101846.41;5001061;28;20089;-77
2023/08/22 03:07:24;;;;;;;5.18;3.00;;;;;;;17.73;86.08;101845.53;4984587;28;20112;-78
2023/08/22 03:09:51;;;;;;;5.63;2.92;;;;;;;17.70;85.88;101851.88;4986059;28;20046;-76
2023/08/22 03:12:19;;;;;;;6.60;2.92;;;;;;;17.69;86.07;101851.94;4984668;28;20042;-74
2023/08/22 03:14:46;;;;;;;5.32;3.13;;;;;;;17.67;86.29;101852.00;4984154;28;20054;-75
2023/08/22 03:17:13;;;;;;;8.38;2.90;;;;;;;17.66;86.16;101844.06;4985803;28;20570;-75
2023/08/22 03:19:40;;;;;;;7.18;2.80;;;;;;;17.66;86.25;101844.06;5001015;28;20030;-75
2023/08/22 03:22:08;;;;;;;8.20;3.10;;;;;;;17.64;86.53;101841.50;5002419;28;20074;-76
2023/08/22 03:24:36;;;;;;;6.18;2.63;;;;;;;17.64;86.38;101851.25;4999096;28;20054;-73
2023/08/22 03:27:04;;;;;;;4.25;2.90;;;;;;;17.64;86.20;101845.94;4985618;28;20099;-73
2023/08/22 03:29:31;;;;;;;5.18;2.90;;;;;;;17.62;86.50;101842.47;4983904;28;20050;-72
2023/08/22 03:31:58;;;;;;;5.97;3.20;;;;;;;17.60;86.56;101839.88;5001957;28;20038;-72
2023/08/22 03:34:26;;;;;;;4.70;2.63;;;;;;;17.57;86.33;101840.00;4994101;28;20662;-72
2023/08/22 03:36:53;;;;;;;7.07;3.30;;;;;;;17.58;86.53;101843.56;4985198;28;20042;-72
2023/08/22 03:39:20;;;;;;;7.40;3.10;;;;;;;17.53;86.67;101841.94;4985780;28;20524;-72
2023/08/22 03:41:47;;;;;;;4.22;2.88;;;;;;;17.53;86.77;101841.09;5004891;28;20047;-75
2023/08/22 03:44:14;;;;;;;4.63;2.83;;;;;;;17.49;86.81;101837.69;5004192;28;20045;-75
2023/08/22 03:46:42;;;;;;;4.97;2.78;;;;;;;17.45;87.24;101843.22;5005570;28;20050;-75
2023/08/22 03:49:20;;;;;;;7.15;3.33;;;;;;;17.44;86.90;101845.00;4984934;28;20125;-75
2023/08/22 03:51:47;;;;;;;5.50;2.70;;;;;;;17.43;86.99;101845.09;4986854;28;20053;-74
2023/08/22 03:54:14;;;;;;;5.18;3.13;;;;;;;17.41;87.09;101837.13;4983331;28;20046;-74
2023/08/22 03:56:41;;;;;;;4.40;2.60;;;;;;;17.43;87.25;101842.41;4988149;28;20038;-75
2023/08/22 03:59:09;;;;;;;6.45;2.88;;;;;;;17.40;87.60;101835.41;5003364;28;20137;-73
2023/08/22 04:01:36;;;;;;;3.55;2.70;;;;;;;17.37;88.02;101831.06;5002844;28;20050;-73
2023/08/22 04:04:04;;;;;;;4.82;2.63;;;;;;;17.35;87.36;101826.75;5002823;28;20038;-73
2023/08/22 04:06:31;;;;;;;5.45;2.60;;;;;;;17.34;87.89;101830.34;4987759;28;20045;-73
2023/08/22 04:08:59;;;;;;;3.85;2.50;;;;;;;17.33;88.00;101837.50;4988292;28;20054;-73
2023/08/22 04:11:26;;;;;;;3.97;2.78;;;;;;;17.30;87.96;101845.59;4988709;28;20046;-73
2023/08/22 04:13:54;;;;;;;7.95;3.15;;;;;;;17.25;87.97;101836.06;4987679;28;20097;-74
2023/08/22 04:16:21;;;;;;;5.05;2.90;;;;;;;17.20;88.10;101841.59;5001680;28;20818;-74
2023/08/22 04:18:48;;;;;;;6.13;3.05;;;;;;;17.18;88.35;101843.47;4986854;28;20041;-74
2023/08/22 04:21:15;;;;;;;5.85;2.80;;;;;;;17.11;88.39;101837.53;4993486;28;20633;-74
2023/08/22 04:23:42;;;;;;;5.45;2.88;;;;;;;17.07;88.35;101839.44;4993412;28;20054;-75
2023/08/22 04:26:09;;;;;;;6.03;2.85;;;;;;;17.02;88.76;101833.47;4986676;28;20620;-75
2023/08/22 04:28:39;;;;;;;6.03;3.30;;;;;;;17.01;88.68;101831.72;4986503;28;20411;-75
2023/08/22 04:31:08;;;;;;;6.35;3.00;;;;;;;16.96;89.17;101833.69;5003254;28;20045;-75
2023/08/22 04:33:35;;;;;;;5.97;2.95;;;;;;;16.94;88.88;101824.03;4986176;28;20101;-75
2023/08/22 04:36:04;;;;;;;5.53;3.67;;;;;;;16.91;89.42;101833.00;4988333;28;20411;-74
2023/08/22 04:38:31;;;;;;;6.63;3.30;;;;;;;16.88;89.43;101823.34;4985602;28;20034;-75
2023/08/22 04:41:02;;;;;;;6.82;3.72;;;;;;;16.85;89.79;101833.25;4987040;28;20069;-75
2023/08/22 04:43:52;;;;;;;7.50;3.55;;;;;;;16.82;89.84;101836.06;4964983;28;20050;-75
2023/08/22 04:46:20;;;;;;;6.07;3.20;;;;;;;16.79;90.43;101845.00;4987626;28;20527;-75
2023/08/22 04:48:48;;;;;;;7.15;3.60;;;;;;;16.77;90.66;101837.09;4985914;28;20094;-75
2023/08/22 04:51:15;;;;;;;5.50;3.45;;;;;;;16.75;90.90;101836.28;4989007;28;20658;-75
2023/08/22 04:53:45;;;;;;;6.82;3.60;;;;;;;16.74;91.06;101833.69;4988273;28;20050;-75
2023/08/22 04:56:13;;;;;;;4.18;3.28;;;;;;;16.73;90.85;101835.50;4987911;28;20042;-74
2023/08/22 04:58:40;;;;;;;5.72;3.28;;;;;;;16.74;90.85;101834.53;4984731;28;20092;-76
2023/08/22 05:01:07;;;;;;;6.05;3.38;;;;;;;16.77;90.62;101836.25;4983987;28;20062;-76
2023/08/22 05:03:34;;;;;;;5.97;3.08;;;;;;;16.86;90.47;101838.53;4985362;28;20125;-76
2023/08/22 05:06:02;;;;;;;5.15;3.05;;;;;;;16.92;90.50;101829.41;4989033;28;20046;-75
2023/08/22 05:08:29;;;;;;;8.30;3.30;;;;;;;16.98;90.27;101837.16;4984634;28;20064;-75
2023/08/22 05:10:56;;;;;;;7.57;3.60;;;;;;;17.03;89.90;101845.84;4987551;28;20039;-76
2023/08/22 05:13:25;;;;;;;9.77;3.53;;;;;;;17.10;89.93;101843.78;4995911;28;20077;-77
2023/08/22 05:15:52;;;;;;;9.27;3.35;;;;;;;17.27;89.71;101844.88;4983893;28;20039;-77
2023/08/22 05:18:19;;;;;;;5.60;3.22;;;;;;;18.13;86.98;101837.56;4983945;28;20046;-78
2023/08/22 05:20:53;;;;;;;8.82;3.30;;;;;;;18.25;86.56;101834.31;4982931;28;20652;-78
2023/08/22 05:23:20;;;;;;;7.68;3.50;;;;;;;18.34;85.99;101843.69;4986970;28;20049;-77
2023/08/22 05:25:47;;;;;;;6.28;3.50;;;;;;;18.54;85.52;101849.88;4983619;28;20038;-78
2023/08/22 05:28:14;;;;;;;13.00;6.60;;;;;;;18.62;86.00;101847.69;4983974;28;20297;-78
2023/08/22 05:30:42;;;;;;;7.03;4.00;;;;;;;19.81;83.21;101841.69;4984345;28;20054;-78
2023/08/22 05:33:10;;;;;;;8.10;6.05;;;;;;;21.51;77.83;101836.59;4986027;28;20062;-78
2023/08/22 05:35:37;;;;;;;13.00;4.25;;;;;;;23.02;73.34;101841.38;4985911;28;20050;-79
2023/08/22 05:38:05;;;;;;;13.95;7.63;;;;;;;24.25;68.46;101839.16;4985239;28;20046;-77
2023/08/22 05:40:33;;;;;;;21.27;7.32;;;;;;;25.18;64.40;101837.69;4982719;28;20376;-75
2023/08/22 05:43:00;;;;;;;13.65;6.60;;;;;;;25.38;62.41;101840.69;4981534;28;20034;-76
2023/08/22 05:45:28;;;;;;;17.08;7.75;;;;;;;24.23;64.35;101843.81;4983152;28;20460;-76
2023/08/22 05:47:55;;;;;;;12.38;7.78;;;;;;;23.03;66.79;101848.47;4986843;28;20126;-76
2023/08/22 05:50:22;;;;;;;13.38;7.97;;;;;;;22.10;69.38;101846.41;4977409;28;20077;-76
2023/08/22 05:52:50;;;;;;;15.52;8.13;;;;;;;21.43;72.10;101849.63;4985912;28;20117;-76
2023/08/22 05:55:18;;;;;;;16.67;8.50;;;;;;;20.91;74.22;101849.06;4985598;28;20141;-78
2023/08/22 05:57:46;;;;;;;14.48;9.20;;;;;;;20.53;75.62;101843.19;4985227;28;20081;-75
2023/08/22 06:00:14;;;;;;;17.40;9.50;;;;;;;20.26;76.98;101846.47;4979974;28;20046;-76
2023/08/22 06:02:49;;;;;;;14.02;9.77;;;;;;;20.04;78.05;101846.81;4979919;28;20039;-77
2023/08/22 06:05:16;;;;;;;21.73;10.07;;;;;;;19.89;79.13;101852.03;4986421;28;20100;-79
2023/08/22 06:07:43;;;;;;;15.05;10.20;;;;;;;19.76;79.75;101846.44;4983535;28;20040;-77
2023/08/22 06:10:10;;;;;;;16.17;10.10;;;;;;;19.70;80.75;101854.78;4984648;28;20422;-74
2023/08/22 06:12:38;;;;;;;17.60;10.82;;;;;;;19.62;80.89;101855.22;4984993;28;20042;-76
2023/08/22 06:15:07;;;;;;;13.20;10.13;;;;;;;19.59;81.50;101849.13;4983983;28;20170;-78
2023/08/22 06:17:34;;;;;;;18.33;11.25;;;;;;;19.59;81.87;101855.34;4983688;28;20565;-75
2023/08/22 06:20:04;;;;;;;20.35;11.82;;;;;;;19.61;81.80;101863.28;4987246;28;20522;-75
2023/08/22 06:22:32;;;;;;;14.25;12.30;;;;;;;19.58;81.83;101869.69;4985230;28;20042;-74
2023/08/22 06:24:59;;;;;;;14.90;12.68;;;;;;;19.58;82.35;101861.66;4984019;28;20049;-75
2023/08/22 06:27:27;;;;;;;26.67;13.07;;;;;;;19.57;82.05;101859.06;4984550;28;20046;-75
2023/08/22 06:29:55;;;;;;;17.08;11.98;;;;;;;19.55;82.84;101864.47;4982678;28;20049;-75
2023/08/22 06:32:22;;;;;;;19.50;13.10;;;;;;;19.53;83.06;101855.69;4983025;28;20038;-77
2023/08/22 06:34:50;;;;;;;17.75;12.73;;;;;;;19.51;83.44;101862.94;4983663;28;20042;-75
2023/08/22 06:37:19;;;;;;;21.00;12.70;;;;;;;19.50;83.37;101859.38;4981230;28;20097;-75
2023/08/22 06:39:46;;;;;;;26.98;13.43;;;;;;;19.50;83.63;101856.69;4984141;28;20475;-78
2023/08/22 06:42:15;;;;;;;18.42;13.30;;;;;;;19.59;83.90;101852.69;4982971;28;20533;-78
2023/08/22 06:44:48;;;;;;;16.67;12.87;;;;;;;19.69;83.94;101853.06;4969538;28;20046;-77
2023/08/22 06:47:15;;;;;;;17.33;13.48;;;;;;;19.80;83.56;101852.50;4982782;28;20153;-73
2023/08/22 06:49:42;;;;;;;15.98;14.10;;;;;;;19.90;83.40;101856.44;4983929;28;20490;-77
2023/08/22 06:52:10;;;;;;;21.60;12.98;;;;;;;19.99;83.55;101865.78;4981657;28;20050;-78
2023/08/22 06:54:37;;;;;;;21.65;13.57;;;;;;;20.06;83.37;101848.44;4983543;28;20495;-76
2023/08/22 06:57:07;;;;;;;21.42;12.15;;;;;;;20.16;82.74;101856.81;4984221;28;20050;-75
2023/08/22 06:59:34;;;;;;;24.27;12.80;;;;;;;20.26;82.69;101865.22;4979380;28;20558;-76
2023/08/22 07:02:02;;;;;;;19.75;12.80;;;;;;;20.38;82.54;101872.59;4984723;28;20043;-76
2023/08/22 07:04:31;;;;;;;20.52;13.52;;;;;;;20.50;82.09;101880.88;4984094;28;20065;-76
2023/08/22 07:06:58;;;;;;;22.27;12.63;;;;;;;20.62;81.97;101874.81;4980534;28;20129;-77
2023/08/22 07:09:26;;;;;;;18.48;13.50;;;;;;;20.78;81.80;101886.44;4986444;28;20042;-76
2023/08/22 07:11:53;;;;;;;23.70;13.63;;;;;;;20.93;81.42;101881.13;4984994;28;20074;-75
2023/08/22 07:14:20;;;;;;;25.30;13.13;;;;;;;21.08;80.83;101884.75;4987960;28;20038;-74
2023/08/22 07:16:47;;;;;;;15.75;13.00;;;;;;;21.23;80.32;101899.94;4985089;28;20557;-76
2023/08/22 07:19:16;;;;;;;17.88;12.52;;;;;;;21.44;79.25;101890.69;4987570;28;20043;-75
2023/08/22 07:22:01;;;;;;;17.63;11.82;;;;;;;21.66;79.52;101890.31;4985112;28;20089;-75
2023/08/22 07:24:28;;;;;;;16.17;12.70;;;;;;;21.84;78.25;101886.50;4988093;28;20066;-73
2023/08/22 07:26:55;;;;;;;15.65;11.60;;;;;;;21.98;76.92;101888.31;4987282;28;20069;-76
2023/08/22 07:29:22;;;;;;;14.68;11.50;;;;;;;22.10;76.67;101889.38;4986132;28;20114;-74
2023/08/22 07:31:50;;;;;;;13.50;9.55;;;;;;;22.21;74.62;101880.66;4984136;28;20517;-75
2023/08/22 07:34:17;;;;;;;13.18;8.52;;;;;;;22.37;73.87;101883.22;4985434;28;20049;-78
2023/08/22 07:36:44;;;;;;;15.05;8.48;;;;;;;22.45;74.07;101880.06;4983984;28;20041;-76
2023/08/22 07:39:11;;;;;;;11.30;8.27;;;;;;;22.46;73.00;101881.78;4984606;28;20499;-76
2023/08/22 07:41:38;;;;;;;17.38;8.38;;;;;;;22.46;72.15;101888.03;4985677;28;20037;-76
2023/08/22 07:44:05;;;;;;;19.50;8.45;;;;;;;22.53;71.19;101891.19;4984496;28;20666;-76
2023/08/22 07:46:32;;;;;;;13.50;8.00;;;;;;;22.67;71.79;101887.59;4984819;28;20049;-76
2023/08/22 07:49:00;;;;;;;11.73;7.68;;;;;;;22.85;71.31;101896.25;4986427;28;20120;-76
2023/08/22 07:51:27;;;;;;;13.90;7.35;;;;;;;23.04;70.99;101890.53;4986703;28;20046;-77
2023/08/22 07:53:54;;;;;;;12.32;7.50;;;;;;;23.15;69.86;101892.50;4984598;28;20102;-78
2023/08/22 07:56:21;;;;;;;12.65;7.15;;;;;;;23.24;69.21;101891.94;4986826;28;20510;-78
2023/08/22 07:58:48;;;;;;;14.70;7.47;;;;;;;23.33;68.54;101892.25;4986014;28;20065;-77
2023/08/22 08:01:15;;;;;;;13.60;7.72;;;;;;;23.42;67.34;101905.09;4986449;28;20120;-76
2023/08/22 08:03:42;;;;;;;14.70;7.30;;;;;;;23.51;66.82;101898.19;4986910;28;20048;-77
2023/08/22 08:06:11;;;;;;;12.98;6.93;;;;;;;23.58;67.65;101900.38;4970858;28;20049;-76
2023/08/22 08:08:38;;;;;;;13.45;7.47;;;;;;;23.66;66.77;101896.28;4986594;28;20042;-77
2023/08/22 08:11:05;;;;;;;11.13;7.15;;;;;;;23.70;65.39;101895.09;4987897;28;20043;-76
2023/08/22 08:13:32;;;;;;;10.50;6.55;;;;;;;23.72;65.00;101895.88;4986346;28;20121;-77
2023/08/22 08:16:02;;;;;;;12.80;6.68;;;;;;;23.70;64.01;101895.97;4985697;28;20054;-78
2023/08/22 08:18:34;;;;;;;8.35;3.85;;;;;;;23.69;62.90;101893.38;4986514;28;20041;-78
2023/08/22 08:21:02;;;;;;;8.25;4.10;;;;;;;23.67;60.88;101898.00;4985786;28;20415;-76
2023/08/22 08:23:30;;;;;;;7.80;4.70;;;;;;;23.67;61.17;101903.38;4987045;28;20586;-78
2023/08/22 08:25:57;;;;;;;7.38;4.75;;;;;;;23.74;60.57;101907.41;4984728;28;20042;-77
2023/08/22 08:28:25;;;;;;;11.68;5.53;;;;;;;23.87;60.63;101913.63;4985593;28;20046;-78
2023/08/22 08:30:52;;;;;;;11.25;5.47;;;;;;;23.96;60.51;101917.53;4985549;28;20323;-78
2023/08/22 08:33:19;;;;;;;8.63;5.60;;;;;;;24.04;60.98;101915.16;4986567;28;20049;-77
2023/08/22 08:35:46;;;;;;;8.18;5.10;;;;;;;24.11;60.32;101907.50;4986908;28;20078;-76
2023/08/22 08:38:14;;;;;;;9.27;5.32;;;;;;;24.13;60.10;101916.34;4985325;28;20042;-77
2023/08/22 08:40:44;;;;;;;14.70;5.50;;;;;;;24.13;59.30;101916.34;4986463;28;20052;-76
2023/08/22 08:43:11;;;;;;;12.13;4.80;;;;;;;24.15;59.71;101918.94;4985090;28;20046;-76
2023/08/22 08:45:39;;;;;;;9.18;5.55;;;;;;;24.18;58.87;101916.03;4981327;28;20687;-76
2023/08/22 08:48:07;;;;;;;10.18;5.25;;;;;;;24.16;59.57;101913.41;4986237;28;20383;-75
2023/08/22 08:50:38;;;;;;;7.78;4.50;;;;;;;24.22;60.60;101913.97;4986698;28;20053;-76
2023/08/22 08:53:06;;;;;;;9.88;4.95;;;;;;;24.29;59.16;101915.25;4987636;28;20573;-75
2023/08/22 08:55:35;;;;;;;7.22;4.55;;;;;;;24.37;59.71;101923.63;4985722;28;21049;-75
2023/08/22 08:58:03;;;;;;;9.20;4.90;;;;;;;24.48;59.62;101917.47;4985012;28;20495;-76
2023/08/22 09:00:31;;;;;;;12.30;5.05;;;;;;;24.53;58.51;101917.13;4984770;28;20090;-75
2023/08/22 09:02:59;;;;;;;10.23;5.68;;;;;;;24.54;58.26;101918.88;4984036;28;20395;-77
2023/08/22 09:05:29;;;;;;;8.80;5.40;;;;;;;24.55;58.33;101913.34;4986028;28;20042;-75
2023/08/22 09:08:20;;;;;;;10.95;5.22;;;;;;;24.60;58.71;101913.00;4982346;28;20487;-76
2023/08/22 09:10:53;;;;;;;15.60;6.13;;;;;;;24.68;59.00;101901.69;4996689;28;20467;-75
2023/08/22 09:13:29;;;;;;;11.18;5.50;;;;;;;24.78;59.21;101913.53;4984696;28;20126;-76
2023/08/22 09:16:16;;;;;;;13.45;6.45;;;;;;;24.83;58.36;101914.03;4983721;28;20053;-75
2023/08/22 09:18:44;;;;;;;14.20;6.50;;;;;;;24.80;57.18;101911.59;4984779;28;20049;-77
2023/08/22 09:21:11;;;;;;;13.75;6.53;;;;;;;24.70;57.35;101908.69;4985742;28;20541;-75
2023/08/22 09:23:42;;;;;;;11.52;6.43;;;;;;;24.64;57.50;101912.69;4986034;28;20042;-76
2023/08/22 09:26:12;;;;;;;12.35;7.60;;;;;;;24.60;57.57;101908.50;4985885;28;20302;-77
2023/08/22 09:28:40;;;;;;;11.73;7.20;;;;;;;24.59;58.23;101905.91;4986124;28;20050;-77
2023/08/22 09:31:07;;;;;;;10.23;6.93;;;;;;;24.59;58.21;101909.47;4986791;28;20043;-76
2023/08/22 09:33:46;;;;;;;11.82;6.95;;;;;;;24.63;57.77;101910.94;4984661;28;20050;-77
2023/08/22 09:36:21;;;;;;;14.85;7.63;;;;;;;24.62;57.65;101911.91;4983217;28;20046;-76
2023/08/22 09:38:57;;;;;;;13.45;7.60;;;;;;;24.66;57.25;101912.59;4982296;28;20046;-76
2023/08/22 09:41:28;;;;;;;9.70;7.32;;;;;;;24.68;57.34;101904.38;4983792;28;20045;-74
2023/08/22 09:44:03;;;;;;;13.55;7.47;;;;;;;24.72;56.91;101904.06;4979555;28;20049;-76
2023/08/22 09:46:31;;;;;;;16.50;8.25;;;;;;;24.74;56.43;101902.13;4983889;28;20487;-76
2023/08/22 09:49:01;;;;;;;14.85;7.32;;;;;;;24.78;56.97;101900.91;4983677;28;20470;-76
2023/08/22 09:51:30;;;;;;;10.70;7.35;;;;;;;24.98;57.13;101901.25;4986309;28;20499;-74
2023/08/22 09:54:03;;;;;;;15.25;7.25;;;;;;;25.23;56.49;101902.94;4982611;28;20398;-75
2023/08/22 09:56:32;;;;;;;16.67;7.80;;;;;;;25.33;55.14;101911.22;4980046;28;20050;-76
2023/08/22 09:59:01;;;;;;;9.90;6.78;;;;;;;25.50;54.19;101901.84;4985930;28;20042;-75
2023/08/22 10:01:33;;;;;;;14.82;7.57;;;;;;;25.55;53.79;101915.84;4994759;28;20045;-75
2023/08/22 10:04:05;;;;;;;14.90;7.15;;;;;;;25.58;52.98;101912.91;5006003;28;20042;-73
2023/08/22 10:06:36;;;;;;;13.68;7.10;;;;;;;25.50;52.94;101919.88;4984102;28;20069;-75
2023/08/22 10:09:14;;;;;;;12.80;7.10;;;;;;;25.42;54.24;101917.78;4985473;28;20446;-75
2023/08/22 10:11:48;;;;;;;14.45;8.15;;;;;;;25.50;54.55;101919.88;4986143;28;20046;-76
2023/08/22 10:14:26;;;;;;;17.42;7.40;;;;;;;25.48;54.35;101911.06;4986443;28;20642;-75
2023/08/22 10:16:55;;;;;;;13.43;6.35;;;;;;;25.45;54.75;101922.06;4984593;28;20089;-74
2023/08/22 10:19:26;;;;;;;15.90;7.47;;;;;;;25.48;54.29;101920.00;4996213;28;20133;-75
2023/08/22 10:21:54;;;;;;;15.25;7.38;;;;;;;25.50;54.72;101914.47;4984728;28;20064;-75
2023/08/22 10:24:31;;;;;;;11.50;7.45;;;;;;;25.67;54.78;101915.88;4985155;28;20129;-75
2023/08/22 10:27:06;;;;;;;16.23;7.57;;;;;;;25.93;54.09;101910.28;4981368;28;20721;-74
2023/08/22 10:29:37;;;;;;;15.52;7.35;;;;;;;26.05;54.24;101909.28;4971373;28;20043;-74
2023/08/22 10:32:04;;;;;;;16.05;7.60;;;;;;;26.13;54.22;101908.69;4983806;28;20574;-76
2023/08/22 10:34:34;;;;;;;19.08;8.25;;;;;;;26.19;53.24;101909.06;4981613;28;20189;-74
2023/08/22 10:37:05;;;;;;;17.65;7.82;;;;;;;26.13;52.37;101912.28;4985860;28;20057;-73
2023/08/22 10:39:40;;;;;;;14.60;7.35;;;;;;;25.96;52.84;101912.72;4969214;28;20502;-75
2023/08/22 10:42:13;;;;;;;16.08;7.43;;;;;;;25.90;53.32;101903.25;4981431;28;20053;-74
2023/08/22 10:44:42;;;;;;;15.73;8.25;;;;;;;25.92;53.48;101900.44;4982983;28;20049;-76
2023/08/22 10:47:21;;;;;;;19.90;7.90;;;;;;;25.97;53.83;101906.31;4987348;28;20578;-78
2023/08/22 10:49:56;;;;;;;26.70;8.25;;;;;;;25.92;53.70;101900.44;4981049;28;20039;-76
2023/08/22 10:52:33;;;;;;;13.35;7.30;;;;;;;26.23;53.89;101906.97;4995519;28;20135;-75
2023/08/22 10:55:03;;;;;;;18.83;7.72;;;;;;;26.48;53.74;101913.97;4990232;28;20527;-76
2023/08/22 10:57:32;;;;;;;13.27;8.30;;;;;;;26.66;53.05;101903.47;4988641;28;20084;-74
2023/08/22 10:59:59;;;;;;;17.25;8.32;;;;;;;26.75;52.86;101890.19;4987870;28;20043;-76
2023/08/22 11:02:32;;;;;;;15.45;7.50;;;;;;;26.88;51.06;101898.16;4985273;28;20061;-74
2023/08/22 11:05:08;;;;;;;9.82;6.72;;;;;;;26.94;50.65;101898.50;4988102;28;20506;-77
2023/08/22 11:07:36;;;;;;;11.30;6.13;;;;;;;27.02;51.74;101897.88;4989261;28;20641;-78
2023/08/22 11:10:04;;;;;;;18.00;6.25;;;;;;;27.15;50.99;101894.13;4993407;28;20069;-75
2023/08/22 11:12:31;;;;;;;15.52;6.60;;;;;;;27.11;50.21;101888.13;4987656;28;20047;-74
2023/08/22 11:14:59;;;;;;;14.30;5.90;;;;;;;27.33;50.12;101892.56;4984886;28;20120;-74
2023/08/22 11:17:26;;;;;;;11.23;6.32;;;;;;;27.53;49.50;101892.72;4988428;28;20046;-74
2023/08/22 11:19:55;;;;;;;18.35;6.40;;;;;;;27.56;48.68;101897.88;4987909;28;20459;-73
2023/08/22 11:22:22;;;;;;;10.55;6.43;;;;;;;27.58;49.06;101894.03;4987932;28;20042;-75
2023/08/22 11:24:51;;;;;;;14.05;6.57;;;;;;;27.54;49.47;101889.88;4981784;28;20503;-75
2023/08/22 11:27:19;;;;;;;9.48;5.40;;;;;;;27.47;47.73;101896.81;4985122;28;20799;-74